KSHD/SHD METAR and TAF weather

Enter ICAO airport designator
Station Type Date Time Source
KSHD METAR 2019/02/17 07:35 UTC NOAA

KSHD 170735Z AUTO 01003KT 10SM CLR M03/M07 A3005 RMK AO2 T10281071


Station Type Date Time Source
KSHD Decoded METAR 2019/02/17 07:35 UTC NOAA

Staunton / Shenandoah, VA, United States (KSHD) 38-16N 078-54W
Feb 17, 2019 - 02:35 AM EST / 2019.02.17 0735 UTC
Wind: from the N (010 degrees) at 3 MPH (3 KT):0
Visibility: 10 mile(s):0
Sky conditions: clear
Temperature: 27.0 F (-2.8 C)
Dew Point: 19.2 F (-7.1 C)
Relative Humidity: 72%
Pressure (altimeter): 30.05 in. Hg (1017 hPa)
ob: KSHD 170735Z AUTO 01003KT 10SM CLR M03/M07 A3005 RMK AO2 T10281071
cycle: 7

Station Type Date Time Source
KSHD TAF UTC NOAA

Error!


Example: see airport list